sensor_id;sensor_type;location;lat;lon;timestamp;temperature;humidity
2663;DHT22;49701;48.072;7.800;2024-01-15T00:02:01;-2.50;99.90
2663;DHT22;49701;48.072;7.800;2024-01-15T00:04:26;-2.50;99.90
2663;DHT22;49701;48.072;7.800;2024-01-15T00:06:52;-2.50;99.90
2663;DHT22;49701;48.072;7.800;2024-01-15T00:09:17;-2.50;99.90
2663;DHT22;49701;48.072;7.800;2024-01-15T00:11:43;-2.50;99.90
2663;DHT22;49701;48.072;7.800;2024-01-15T00:14:09;-2.50;99.90
2663;DHT22;49701;48.072;7.800;2024-01-15T00:16:34;-2.50;99.90
2663;DHT22;49701;48.072;7.800;2024-01-15T00:19:00;-2.50;99.90
2663;DHT22;49701;48.072;7.800;2024-01-15T00:21:25;-2.60;99.90
2663;DHT22;49701;48.072;7.800;2024-01-15T00:23:52;-2.60;99.90
2663;DHT22;49701;48.072;7.800;2024-01-15T00:26:18;-2.60;99.90
2663;DHT22;49701;48.072;7.800;2024-01-15T00:28:43;-2.60;99.90
2663;DHT22;49701;48.072;7.800;2024-01-15T00:31:09;-2.60;99.90
2663;DHT22;49701;48.072;7.800;2024-01-15T00:33:35;-2.60;99.90
2663;DHT22;49701;48.072;7.800;2024-01-15T00:36:00;-2.60;99.90
2663;DHT22;49701;48.072;7.800;2024-01-15T00:38:26;-2.50;99.90
2663;DHT22;49701;48.072;7.800;2024-01-15T00:40:51;-2.60;99.90
2663;DHT22;49701;48.072;7.800;2024-01-15T00:43:17;-2.60;99.90
2663;DHT22;49701;48.072;7.800;2024-01-15T00:45:44;-2.70;99.90
2663;DHT22;49701;48.072;7.800;2024-01-15T00:48:10;-2.70;99.90
2663;DHT22;49701;48.072;7.800;2024-01-15T00:50:36;-2.80;99.90
2663;DHT22;49701;48.072;7.800;2024-01-15T00:53:01;-2.90;99.90
2663;DHT22;49701;48.072;7.800;2024-01-15T00:55:27;-3.00;99.90
2663;DHT22;49701;48.072;7.800;2024-01-15T00:57:53;-3.10;99.90
2663;DHT22;49701;48.072;7.800;2024-01-15T01:00:18;-3.10;99.90
2663;DHT22;49701;48.072;7.800;2024-01-15T01:02:45;-3.10;99.90
2663;DHT22;49701;48.072;7.800;2024-01-15T01:05:10;-3.20;99.90
2663;DHT22;49701;48.072;7.800;2024-01-15T01:07:36;-3.20;99.90
2663;DHT22;49701;48.072;7.800;2024-01-15T01:10:01;-3.20;99.90
2663;DHT22;49701;48.072;7.800;2024-01-15T01:12:27;-3.20;99.90
2663;DHT22;49701;48.072;7.800;2024-01-15T01:14:53;-3.20;99.90
2663;DHT22;49701;48.072;7.800;2024-01-15T01:17:18;-3.20;99.90
2663;DHT22;49701;48.072;7.800;2024-01-15T01:19:44;-3.10;99.90
2663;DHT22;49701;48.072;7.800;2024-01-15T01:22:09;-3.10;99.90
2663;DHT22;49701;48.072;7.800;2024-01-15T01:24:35;-3.00;99.90
2663;DHT22;49701;48.072;7.800;2024-01-15T01:27:00;-3.00;99.90
2663;DHT22;49701;48.072;7.800;2024-01-15T01:29:26;-3.00;99.90
2663;DHT22;49701;48.072;7.800;2024-01-15T01:31:52;-3.00;99.90
2663;DHT22;49701;48.072;7.800;2024-01-15T01:34:17;-3.00;99.90
2663;DHT22;49701;48.072;7.800;2024-01-15T01:36:43;-3.00;99.90
2663;DHT22;49701;48.072;7.800;2024-01-15T01:39:09;-2.90;99.90
2663;DHT22;49701;48.072;7.800;2024-01-15T01:41:34;-2.90;99.90
2663;DHT22;49701;48.072;7.800;2024-01-15T01:44:00;-2.90;99.90
2663;DHT22;49701;48.072;7.800;2024-01-15T01:46:26;-2.80;99.90
2663;DHT22;49701;48.072;7.800;2024-01-15T01:48:52;-2.80;99.90
2663;DHT22;49701;48.072;7.800;2024-01-15T01:51:18;-2.70;99.90
2663;DHT22;49701;48.072;7.800;2024-01-15T01:53:45;-2.70;99.90
2663;DHT22;49701;48.072;7.800;2024-01-15T01:56:11;-2.70;99.90
2663;DHT22;49701;48.072;7.800;2024-01-15T01:58:37;-2.60;99.90
2663;DHT22;49701;48.072;7.800;2024-01-15T02:01:03;-2.50;99.90
2663;DHT22;49701;48.072;7.800;2024-01-15T02:03:29;-2.50;99.90
2663;DHT22;49701;48.072;7.800;2024-01-15T02:05:56;-2.50;99.90
2663;DHT22;49701;48.072;7.800;2024-01-15T02:08:21;-2.50;99.90
2663;DHT22;49701;48.072;7.800;2024-01-15T02:10:47;-2.40;99.90
2663;DHT22;49701;48.072;7.800;2024-01-15T02:13:12;-2.40;99.90
2663;DHT22;49701;48.072;7.800;2024-01-15T02:15:38;-2.30;99.90
2663;DHT22;49701;48.072;7.800;2024-01-15T02:18:04;-2.30;99.90
2663;DHT22;49701;48.072;7.800;2024-01-15T02:20:31;-2.30;99.90
2663;DHT22;49701;48.072;7.800;2024-01-15T02:23:09;-2.30;99.90
2663;DHT22;49701;48.072;7.800;2024-01-15T02:25:39;-2.20;99.90
2663;DHT22;49701;48.072;7.800;2024-01-15T02:28:05;-2.20;99.90
2663;DHT22;49701;48.072;7.800;2024-01-15T02:30:31;-2.20;99.90
2663;DHT22;49701;48.072;7.800;2024-01-15T02:32:57;-2.20;99.90
2663;DHT22;49701;48.072;7.800;2024-01-15T02:35:22;-2.10;99.90
2663;DHT22;49701;48.072;7.800;2024-01-15T02:37:48;-2.10;99.90
2663;DHT22;49701;48.072;7.800;2024-01-15T02:40:13;-2.10;99.90
2663;DHT22;49701;48.072;7.800;2024-01-15T02:42:39;-2.00;99.90
2663;DHT22;49701;48.072;7.800;2024-01-15T02:45:05;-2.00;99.90
2663;DHT22;49701;48.072;7.800;2024-01-15T02:47:30;-2.10;99.90
2663;DHT22;49701;48.072;7.800;2024-01-15T02:49:56;-2.00;99.90
2663;DHT22;49701;48.072;7.800;2024-01-15T02:52:21;-2.00;99.90
2663;DHT22;49701;48.072;7.800;2024-01-15T02:54:47;-2.00;99.90
2663;DHT22;49701;48.072;7.800;2024-01-15T02:57:12;-2.00;99.90
2663;DHT22;49701;48.072;7.800;2024-01-15T02:59:38;-2.00;99.90
2663;DHT22;49701;48.072;7.800;2024-01-15T03:02:04;-1.90;99.90
2663;DHT22;49701;48.072;7.800;2024-01-15T03:04:29;-1.90;99.90
2663;DHT22;49701;48.072;7.800;2024-01-15T03:06:55;-1.90;99.90
2663;DHT22;49701;48.072;7.800;2024-01-15T03:09:20;-1.90;99.90
2663;DHT22;49701;48.072;7.800;2024-01-15T03:11:46;-1.90;99.90
2663;DHT22;49701;48.072;7.800;2024-01-15T03:14:12;-1.80;99.90
2663;DHT22;49701;48.072;7.800;2024-01-15T03:16:37;-1.90;99.90
2663;DHT22;49701;48.072;7.800;2024-01-15T03:19:03;-1.80;99.90
2663;DHT22;49701;48.072;7.800;2024-01-15T03:21:28;-1.80;99.90
2663;DHT22;49701;48.072;7.800;2024-01-15T03:23:54;-1.80;99.90
2663;DHT22;49701;48.072;7.800;2024-01-15T03:26:20;-1.80;99.90
2663;DHT22;49701;48.072;7.800;2024-01-15T03:28:45;-1.80;99.90
2663;DHT22;49701;48.072;7.800;2024-01-15T03:31:11;-1.70;99.90
2663;DHT22;49701;48.072;7.800;2024-01-15T03:33:36;-1.70;99.90
2663;DHT22;49701;48.072;7.800;2024-01-15T03:36:02;-1.70;99.90
2663;DHT22;49701;48.072;7.800;2024-01-15T03:38:28;-1.70;99.90
2663;DHT22;49701;48.072;7.800;2024-01-15T03:40:54;-1.70;99.90
2663;DHT22;49701;48.072;7.800;2024-01-15T03:43:19;-1.80;99.90
2663;DHT22;49701;48.072;7.800;2024-01-15T03:45:45;-1.80;99.90
2663;DHT22;49701;48.072;7.800;2024-01-15T03:48:11;-1.80;99.90
2663;DHT22;49701;48.072;7.800;2024-01-15T03:50:36;-1.80;99.90
2663;DHT22;49701;48.072;7.800;2024-01-15T03:53:02;-1.80;99.90
2663;DHT22;49701;48.072;7.800;2024-01-15T03:55:28;-1.80;99.90
2663;DHT22;49701;48.072;7.800;2024-01-15T03:57:53;-1.80;99.90
2663;DHT22;49701;48.072;7.800;2024-01-15T04:00:19;-1.80;99.90
2663;DHT22;49701;48.072;7.800;2024-01-15T04:02:44;-1.80;99.90
2663;DHT22;49701;48.072;7.800;2024-01-15T04:05:10;-1.80;99.90
2663;DHT22;49701;48.072;7.800;2024-01-15T04:07:36;-1.70;99.90
2663;DHT22;49701;48.072;7.800;2024-01-15T04:10:01;-1.70;99.90
2663;DHT22;49701;48.072;7.800;2024-01-15T04:12:27;-1.70;99.90
2663;DHT22;49701;48.072;7.800;2024-01-15T04:14:53;-1.70;99.90
2663;DHT22;49701;48.072;7.800;2024-01-15T04:17:18;-1.70;99.90
2663;DHT22;49701;48.072;7.800;2024-01-15T04:19:44;-1.70;99.90
2663;DHT22;49701;48.072;7.800;2024-01-15T04:22:10;-1.70;99.90
2663;DHT22;49701;48.072;7.800;2024-01-15T04:24:35;-1.70;99.90
2663;DHT22;49701;48.072;7.800;2024-01-15T04:27:01;-1.70;99.90
2663;DHT22;49701;48.072;7.800;2024-01-15T04:29:26;-1.70;99.90
2663;DHT22;49701;48.072;7.800;2024-01-15T04:31:52;-1.70;99.90
2663;DHT22;49701;48.072;7.800;2024-01-15T04:34:18;-1.60;99.90
2663;DHT22;49701;48.072;7.800;2024-01-15T04:36:44;-1.60;99.90
2663;DHT22;49701;48.072;7.800;2024-01-15T04:39:09;-1.60;99.90
2663;DHT22;49701;48.072;7.800;2024-01-15T04:41:36;-1.60;99.90
2663;DHT22;49701;48.072;7.800;2024-01-15T04:44:02;-1.60;99.90
2663;DHT22;49701;48.072;7.800;2024-01-15T04:46:28;-1.60;99.90
2663;DHT22;49701;48.072;7.800;2024-01-15T04:48:53;-1.60;99.90
2663;DHT22;49701;48.072;7.800;2024-01-15T04:51:19;-1.50;99.90
2663;DHT22;49701;48.072;7.800;2024-01-15T04:53:44;-1.50;99.90
2663;DHT22;49701;48.072;7.800;2024-01-15T04:56:10;-1.50;99.90
2663;DHT22;49701;48.072;7.800;2024-01-15T04:58:36;-1.50;99.90
2663;DHT22;49701;48.072;7.800;2024-01-15T05:01:01;-1.50;99.90
2663;DHT22;49701;48.072;7.800;2024-01-15T05:03:27;-1.50;99.90
2663;DHT22;49701;48.072;7.800;2024-01-15T05:05:52;-1.50;99.90
2663;DHT22;49701;48.072;7.800;2024-01-15T05:08:18;-1.50;99.90
2663;DHT22;49701;48.072;7.800;2024-01-15T05:10:43;-1.40;99.90
2663;DHT22;49701;48.072;7.800;2024-01-15T05:13:09;-1.40;99.90
2663;DHT22;49701;48.072;7.800;2024-01-15T05:15:34;-1.40;99.90
2663;DHT22;49701;48.072;7.800;2024-01-15T05:18:00;-1.40;99.90
2663;DHT22;49701;48.072;7.800;2024-01-15T05:20:26;-1.40;99.90
2663;DHT22;49701;48.072;7.800;2024-01-15T05:22:51;-1.30;99.90
2663;DHT22;49701;48.072;7.800;2024-01-15T05:25:17;-1.30;99.90
2663;DHT22;49701;48.072;7.800;2024-01-15T05:27:42;-1.30;99.90
2663;DHT22;49701;48.072;7.800;2024-01-15T05:30:08;-1.20;99.90
2663;DHT22;49701;48.072;7.800;2024-01-15T05:32:34;-1.20;99.90
2663;DHT22;49701;48.072;7.800;2024-01-15T05:34:59;-1.20;99.90
2663;DHT22;49701;48.072;7.800;2024-01-15T05:37:25;-1.20;99.90
2663;DHT22;49701;48.072;7.800;2024-01-15T05:39:50;-1.20;99.90
2663;DHT22;49701;48.072;7.800;2024-01-15T05:42:16;-1.20;99.90
2663;DHT22;49701;48.072;7.800;2024-01-15T05:44:41;-1.10;99.90
2663;DHT22;49701;48.072;7.800;2024-01-15T05:47:07;-1.10;99.90
2663;DHT22;49701;48.072;7.800;2024-01-15T05:49:33;-1.10;99.90
2663;DHT22;49701;48.072;7.800;2024-01-15T05:51:58;-1.00;99.90
2663;DHT22;49701;48.072;7.800;2024-01-15T05:54:24;-1.00;99.90
2663;DHT22;49701;48.072;7.800;2024-01-15T05:56:50;-1.00;99.90
2663;DHT22;49701;48.072;7.800;2024-01-15T05:59:15;-0.90;99.90
2663;DHT22;49701;48.072;7.800;2024-01-15T06:01:41;-0.90;99.90
2663;DHT22;49701;48.072;7.800;2024-01-15T06:04:06;-0.90;99.90
2663;DHT22;49701;48.072;7.800;2024-01-15T06:06:32;-0.80;99.90
2663;DHT22;49701;48.072;7.800;2024-01-15T06:08:57;-0.80;99.90
2663;DHT22;49701;48.072;7.800;2024-01-15T06:11:29;-0.80;99.90
2663;DHT22;49701;48.072;7.800;2024-01-15T06:13:55;-0.80;99.90
2663;DHT22;49701;48.072;7.800;2024-01-15T06:16:20;-0.80;99.90
2663;DHT22;49701;48.072;7.800;2024-01-15T06:18:47;-0.80;99.90
2663;DHT22;49701;48.072;7.800;2024-01-15T06:21:12;-0.70;99.90
2663;DHT22;49701;48.072;7.800;2024-01-15T06:23:39;-0.70;99.90
2663;DHT22;49701;48.072;7.800;2024-01-15T06:26:05;-0.70;99.90
2663;DHT22;49701;48.072;7.800;2024-01-15T06:28:31;-0.70;99.90
2663;DHT22;49701;48.072;7.800;2024-01-15T06:30:57;-0.60;99.90
2663;DHT22;49701;48.072;7.800;2024-01-15T06:33:23;-0.60;99.90
2663;DHT22;49701;48.072;7.800;2024-01-15T06:35:49;-0.50;99.90
2663;DHT22;49701;48.072;7.800;2024-01-15T06:38:15;-0.50;99.90
2663;DHT22;49701;48.072;7.800;2024-01-15T06:40:40;-0.40;99.90
2663;DHT22;49701;48.072;7.800;2024-01-15T06:43:11;-0.40;99.90
2663;DHT22;49701;48.072;7.800;2024-01-15T06:45:36;-0.40;99.90
2663;DHT22;49701;48.072;7.800;2024-01-15T06:48:02;-0.30;99.90
2663;DHT22;49701;48.072;7.800;2024-01-15T06:50:28;-0.30;99.90
2663;DHT22;49701;48.072;7.800;2024-01-15T06:52:53;-0.30;99.90
2663;DHT22;49701;48.072;7.800;2024-01-15T06:55:19;-0.30;99.90
2663;DHT22;49701;48.072;7.800;2024-01-15T06:57:44;-0.30;99.90
2663;DHT22;49701;48.072;7.800;2024-01-15T07:00:10;-0.30;99.90
2663;DHT22;49701;48.072;7.800;2024-01-15T07:02:36;-0.20;99.90
2663;DHT22;49701;48.072;7.800;2024-01-15T07:05:02;-0.20;99.90
2663;DHT22;49701;48.072;7.800;2024-01-15T07:07:30;-0.20;99.90
2663;DHT22;49701;48.072;7.800;2024-01-15T07:09:56;-0.20;99.90
2663;DHT22;49701;48.072;7.800;2024-01-15T07:12:22;-0.10;99.90
2663;DHT22;49701;48.072;7.800;2024-01-15T07:14:47;-0.10;99.90
2663;DHT22;49701;48.072;7.800;2024-01-15T07:17:13;-0.10;99.90
2663;DHT22;49701;48.072;7.800;2024-01-15T07:19:38;-0.10;99.90
2663;DHT22;49701;48.072;7.800;2024-01-15T07:22:04;-0.10;99.90
2663;DHT22;49701;48.072;7.800;2024-01-15T07:24:30;0.00;99.90
2663;DHT22;49701;48.072;7.800;2024-01-15T07:26:55;0.00;99.90
2663;DHT22;49701;48.072;7.800;2024-01-15T07:29:21;0.00;99.90
2663;DHT22;49701;48.072;7.800;2024-01-15T07:31:50;0.00;99.90
2663;DHT22;49701;48.072;7.800;2024-01-15T07:34:16;0.10;99.90
2663;DHT22;49701;48.072;7.800;2024-01-15T07:36:43;0.20;99.90
2663;DHT22;49701;48.072;7.800;2024-01-15T07:39:09;0.20;99.90
2663;DHT22;49701;48.072;7.800;2024-01-15T07:41:35;0.30;99.90
2663;DHT22;49701;48.072;7.800;2024-01-15T07:44:02;0.30;99.90
2663;DHT22;49701;48.072;7.800;2024-01-15T07:46:27;0.30;99.90
2663;DHT22;49701;48.072;7.800;2024-01-15T07:48:53;0.30;99.90
2663;DHT22;49701;48.072;7.800;2024-01-15T07:51:22;0.30;99.90
2663;DHT22;49701;48.072;7.800;2024-01-15T07:53:47;0.30;99.90
2663;DHT22;49701;48.072;7.800;2024-01-15T07:56:13;0.30;99.90
2663;DHT22;49701;48.072;7.800;2024-01-15T07:58:39;0.40;99.90
2663;DHT22;49701;48.072;7.800;2024-01-15T08:01:04;0.50;99.90
2663;DHT22;49701;48.072;7.800;2024-01-15T08:03:30;0.50;99.90
2663;DHT22;49701;48.072;7.800;2024-01-15T08:05:56;0.50;99.90
2663;DHT22;49701;48.072;7.800;2024-01-15T08:08:22;0.60;99.90
2663;DHT22;49701;48.072;7.800;2024-01-15T08:10:48;0.70;99.90
2663;DHT22;49701;48.072;7.800;2024-01-15T08:13:14;0.70;99.90
2663;DHT22;49701;48.072;7.800;2024-01-15T08:15:40;0.70;99.90
2663;DHT22;49701;48.072;7.800;2024-01-15T08:18:06;0.70;99.90
2663;DHT22;49701;48.072;7.800;2024-01-15T08:20:32;0.70;99.90
2663;DHT22;49701;48.072;7.800;2024-01-15T08:22:57;0.70;99.90
2663;DHT22;49701;48.072;7.800;2024-01-15T08:25:23;0.80;99.90
2663;DHT22;49701;48.072;7.800;2024-01-15T08:27:48;0.80;99.90
2663;DHT22;49701;48.072;7.800;2024-01-15T08:30:14;0.90;99.90
2663;DHT22;49701;48.072;7.800;2024-01-15T08:32:40;0.90;99.90
2663;DHT22;49701;48.072;7.800;2024-01-15T08:35:08;0.90;99.90
2663;DHT22;49701;48.072;7.800;2024-01-15T08:37:34;1.00;99.90
2663;DHT22;49701;48.072;7.800;2024-01-15T08:40:00;1.00;99.90
2663;DHT22;49701;48.072;7.800;2024-01-15T08:42:25;1.10;99.90
2663;DHT22;49701;48.072;7.800;2024-01-15T08:44:52;1.10;99.90
2663;DHT22;49701;48.072;7.800;2024-01-15T08:47:18;1.10;99.90
2663;DHT22;49701;48.072;7.800;2024-01-15T08:49:43;1.10;99.90
2663;DHT22;49701;48.072;7.800;2024-01-15T08:52:10;1.10;99.90
2663;DHT22;49701;48.072;7.800;2024-01-15T08:54:36;1.10;99.90
2663;DHT22;49701;48.072;7.800;2024-01-15T08:57:01;1.20;99.90
2663;DHT22;49701;48.072;7.800;2024-01-15T08:59:27;1.10;99.90
2663;DHT22;49701;48.072;7.800;2024-01-15T09:01:53;1.10;99.90
2663;DHT22;49701;48.072;7.800;2024-01-15T09:04:19;1.20;99.90
2663;DHT22;49701;48.072;7.800;2024-01-15T09:06:45;1.20;99.90
2663;DHT22;49701;48.072;7.800;2024-01-15T09:09:12;1.30;99.90
2663;DHT22;49701;48.072;7.800;2024-01-15T09:11:38;1.30;99.90
2663;DHT22;49701;48.072;7.800;2024-01-15T09:14:03;1.40;99.90
2663;DHT22;49701;48.072;7.800;2024-01-15T09:16:29;1.40;99.90
2663;DHT22;49701;48.072;7.800;2024-01-15T09:18:54;1.40;99.90
2663;DHT22;49701;48.072;7.800;2024-01-15T09:21:23;1.40;99.90
2663;DHT22;49701;48.072;7.800;2024-01-15T09:23:50;1.50;99.90
2663;DHT22;49701;48.072;7.800;2024-01-15T09:26:15;1.50;99.90
2663;DHT22;49701;48.072;7.800;2024-01-15T09:28:41;1.60;99.90
2663;DHT22;49701;48.072;7.800;2024-01-15T09:31:07;1.70;99.90
2663;DHT22;49701;48.072;7.800;2024-01-15T09:33:32;1.70;99.90
2663;DHT22;49701;48.072;7.800;2024-01-15T09:36:01;1.80;99.90
2663;DHT22;49701;48.072;7.800;2024-01-15T09:38:27;1.90;99.90
2663;DHT22;49701;48.072;7.800;2024-01-15T09:40:52;1.90;99.90
2663;DHT22;49701;48.072;7.800;2024-01-15T09:43:18;1.90;99.90
2663;DHT22;49701;48.072;7.800;2024-01-15T09:45:44;2.00;99.90
2663;DHT22;49701;48.072;7.800;2024-01-15T09:48:09;2.00;99.90
2663;DHT22;49701;48.072;7.800;2024-01-15T09:50:35;2.10;99.90
2663;DHT22;49701;48.072;7.800;2024-01-15T09:53:01;2.20;99.90
2663;DHT22;49701;48.072;7.800;2024-01-15T09:55:27;2.20;99.90
2663;DHT22;49701;48.072;7.800;2024-01-15T09:57:53;2.20;99.90
2663;DHT22;49701;48.072;7.800;2024-01-15T10:00:19;2.20;99.90
2663;DHT22;49701;48.072;7.800;2024-01-15T10:02:45;2.30;99.90
2663;DHT22;49701;48.072;7.800;2024-01-15T10:05:10;2.30;99.90
2663;DHT22;49701;48.072;7.800;2024-01-15T10:07:37;2.30;99.90
2663;DHT22;49701;48.072;7.800;2024-01-15T10:10:02;2.30;99.90
2663;DHT22;49701;48.072;7.800;2024-01-15T10:12:32;2.30;99.90
2663;DHT22;49701;48.072;7.800;2024-01-15T10:14:58;2.30;99.90
2663;DHT22;49701;48.072;7.800;2024-01-15T10:17:24;2.30;99.90
2663;DHT22;49701;48.072;7.800;2024-01-15T10:19:49;2.30;99.90
2663;DHT22;49701;48.072;7.800;2024-01-15T10:22:15;2.30;99.90
2663;DHT22;49701;48.072;7.800;2024-01-15T10:24:41;2.40;99.90
2663;DHT22;49701;48.072;7.800;2024-01-15T10:27:07;2.40;99.90
2663;DHT22;49701;48.072;7.800;2024-01-15T10:29:33;2.40;99.90
2663;DHT22;49701;48.072;7.800;2024-01-15T10:31:58;2.50;99.90
2663;DHT22;49701;48.072;7.800;2024-01-15T10:34:24;2.50;99.90
2663;DHT22;49701;48.072;7.800;2024-01-15T10:36:50;2.50;99.90
2663;DHT22;49701;48.072;7.800;2024-01-15T10:39:24;2.50;99.90
2663;DHT22;49701;48.072;7.800;2024-01-15T10:41:50;2.50;99.90
2663;DHT22;49701;48.072;7.800;2024-01-15T10:44:19;2.50;99.90
2663;DHT22;49701;48.072;7.800;2024-01-15T10:46:45;2.40;99.90
2663;DHT22;49701;48.072;7.800;2024-01-15T10:49:11;2.40;99.90
2663;DHT22;49701;48.072;7.800;2024-01-15T10:51:37;2.50;99.90
2663;DHT22;49701;48.072;7.800;2024-01-15T10:54:02;2.50;99.90
2663;DHT22;49701;48.072;7.800;2024-01-15T10:56:28;2.50;99.90
2663;DHT22;49701;48.072;7.800;2024-01-15T10:58:55;2.40;99.90
2663;DHT22;49701;48.072;7.800;2024-01-15T11:01:21;2.50;99.90
2663;DHT22;49701;48.072;7.800;2024-01-15T11:03:47;2.40;99.90
2663;DHT22;49701;48.072;7.800;2024-01-15T11:06:16;2.50;99.90
2663;DHT22;49701;48.072;7.800;2024-01-15T11:08:43;2.50;99.90
2663;DHT22;49701;48.072;7.800;2024-01-15T11:11:09;2.50;99.90
2663;DHT22;49701;48.072;7.800;2024-01-15T11:16:07;2.60;99.90
2663;DHT22;49701;48.072;7.800;2024-01-15T11:18:36;2.60;99.90
2663;DHT22;49701;48.072;7.800;2024-01-15T11:23:43;2.60;99.90
2663;DHT22;49701;48.072;7.800;2024-01-15T11:26:31;2.60;99.90
2663;DHT22;49701;48.072;7.800;2024-01-15T11:28:58;2.70;99.90
2663;DHT22;49701;48.072;7.800;2024-01-15T11:34:06;2.70;99.90
2663;DHT22;49701;48.072;7.800;2024-01-15T11:41:54;2.90;99.90
2663;DHT22;49701;48.072;7.800;2024-01-15T11:44:21;2.90;99.90
2663;DHT22;49701;48.072;7.800;2024-01-15T11:47:01;2.80;99.90
2663;DHT22;49701;48.072;7.800;2024-01-15T11:51:53;2.80;99.90
2663;DHT22;49701;48.072;7.800;2024-01-15T11:54:20;2.80;99.90
2663;DHT22;49701;48.072;7.800;2024-01-15T11:56:48;2.80;99.90
2663;DHT22;49701;48.072;7.800;2024-01-15T11:59:14;2.90;99.90
2663;DHT22;49701;48.072;7.800;2024-01-15T12:01:40;2.90;99.90
2663;DHT22;49701;48.072;7.800;2024-01-15T12:04:06;2.90;99.90
2663;DHT22;49701;48.072;7.800;2024-01-15T12:06:32;3.00;99.90
2663;DHT22;49701;48.072;7.800;2024-01-15T12:09:09;2.90;99.90
2663;DHT22;49701;48.072;7.800;2024-01-15T12:11:35;2.90;99.90
2663;DHT22;49701;48.072;7.800;2024-01-15T12:14:03;2.90;99.90
2663;DHT22;49701;48.072;7.800;2024-01-15T12:16:28;3.00;99.90
2663;DHT22;49701;48.072;7.800;2024-01-15T12:18:54;3.00;99.90
2663;DHT22;49701;48.072;7.800;2024-01-15T12:21:20;3.10;99.90
2663;DHT22;49701;48.072;7.800;2024-01-15T12:23:48;3.10;99.90
2663;DHT22;49701;48.072;7.800;2024-01-15T12:26:14;3.00;99.90
2663;DHT22;49701;48.072;7.800;2024-01-15T12:28:40;3.00;99.90
2663;DHT22;49701;48.072;7.800;2024-01-15T12:31:05;3.10;99.90
2663;DHT22;49701;48.072;7.800;2024-01-15T12:33:31;3.10;99.90
2663;DHT22;49701;48.072;7.800;2024-01-15T12:35:57;3.20;99.90
2663;DHT22;49701;48.072;7.800;2024-01-15T12:38:22;3.30;99.90
2663;DHT22;49701;48.072;7.800;2024-01-15T12:40:48;3.30;99.90
2663;DHT22;49701;48.072;7.800;2024-01-15T12:43:14;3.30;99.90
2663;DHT22;49701;48.072;7.800;2024-01-15T12:45:40;3.30;99.90
2663;DHT22;49701;48.072;7.800;2024-01-15T12:48:06;3.40;99.90
2663;DHT22;49701;48.072;7.800;2024-01-15T12:50:33;3.40;99.90
2663;DHT22;49701;48.072;7.800;2024-01-15T12:52:59;3.40;99.90
2663;DHT22;49701;48.072;7.800;2024-01-15T12:55:25;3.40;99.90
2663;DHT22;49701;48.072;7.800;2024-01-15T12:57:51;3.40;99.90
2663;DHT22;49701;48.072;7.800;2024-01-15T13:00:20;3.40;99.90
2663;DHT22;49701;48.072;7.800;2024-01-15T13:02:46;3.40;99.90
2663;DHT22;49701;48.072;7.800;2024-01-15T13:05:12;3.40;99.90
2663;DHT22;49701;48.072;7.800;2024-01-15T13:07:38;3.40;99.90
2663;DHT22;49701;48.072;7.800;2024-01-15T13:10:04;3.40;99.90
2663;DHT22;49701;48.072;7.800;2024-01-15T13:12:30;3.50;99.90
2663;DHT22;49701;48.072;7.800;2024-01-15T13:14:58;3.50;99.90
2663;DHT22;49701;48.072;7.800;2024-01-15T13:17:24;3.50;99.90
2663;DHT22;49701;48.072;7.800;2024-01-15T13:19:49;3.50;99.90
2663;DHT22;49701;48.072;7.800;2024-01-15T13:22:15;3.50;99.90
2663;DHT22;49701;48.072;7.800;2024-01-15T13:24:41;3.50;99.90
2663;DHT22;49701;48.072;7.800;2024-01-15T13:27:08;3.50;99.90
2663;DHT22;49701;48.072;7.800;2024-01-15T13:29:34;3.40;99.90
2663;DHT22;49701;48.072;7.800;2024-01-15T13:31:59;3.40;99.90
2663;DHT22;49701;48.072;7.800;2024-01-15T13:34:25;3.40;99.90
2663;DHT22;49701;48.072;7.800;2024-01-15T13:36:51;3.40;99.90
2663;DHT22;49701;48.072;7.800;2024-01-15T13:39:18;3.40;99.90
2663;DHT22;49701;48.072;7.800;2024-01-15T13:41:46;3.40;99.90
2663;DHT22;49701;48.072;7.800;2024-01-15T13:44:12;3.30;99.90
2663;DHT22;49701;48.072;7.800;2024-01-15T13:46:37;3.30;99.90
2663;DHT22;49701;48.072;7.800;2024-01-15T13:49:03;3.40;99.90
2663;DHT22;49701;48.072;7.800;2024-01-15T13:51:31;3.30;99.90
2663;DHT22;49701;48.072;7.800;2024-01-15T13:53:57;3.30;99.90
2663;DHT22;49701;48.072;7.800;2024-01-15T13:56:23;3.20;99.90
2663;DHT22;49701;48.072;7.800;2024-01-15T13:58:49;3.10;99.90
2663;DHT22;49701;48.072;7.800;2024-01-15T14:01:15;3.10;99.90
2663;DHT22;49701;48.072;7.800;2024-01-15T14:03:43;3.00;99.90
2663;DHT22;49701;48.072;7.800;2024-01-15T14:06:08;3.00;99.90
2663;DHT22;49701;48.072;7.800;2024-01-15T14:08:35;3.00;99.90
2663;DHT22;49701;48.072;7.800;2024-01-15T14:11:02;3.00;99.90
2663;DHT22;49701;48.072;7.800;2024-01-15T14:13:28;3.00;99.90
2663;DHT22;49701;48.072;7.800;2024-01-15T14:15:54;3.00;99.90
2663;DHT22;49701;48.072;7.800;2024-01-15T14:18:21;3.00;99.90
2663;DHT22;49701;48.072;7.800;2024-01-15T14:20:47;3.00;99.90
2663;DHT22;49701;48.072;7.800;2024-01-15T14:23:13;3.00;99.90
2663;DHT22;49701;48.072;7.800;2024-01-15T14:25:39;3.00;99.90
2663;DHT22;49701;48.072;7.800;2024-01-15T14:28:05;3.00;99.90
2663;DHT22;49701;48.072;7.800;2024-01-15T14:30:32;3.00;99.90
2663;DHT22;49701;48.072;7.800;2024-01-15T14:32:58;3.00;99.90
2663;DHT22;49701;48.072;7.800;2024-01-15T14:35:23;3.00;99.90
2663;DHT22;49701;48.072;7.800;2024-01-15T14:37:49;2.90;99.90
2663;DHT22;49701;48.072;7.800;2024-01-15T14:40:15;2.90;99.90
2663;DHT22;49701;48.072;7.800;2024-01-15T14:42:41;2.90;99.90
2663;DHT22;49701;48.072;7.800;2024-01-15T14:45:07;2.80;99.90
2663;DHT22;49701;48.072;7.800;2024-01-15T14:47:40;2.90;99.90
2663;DHT22;49701;48.072;7.800;2024-01-15T14:50:07;2.80;99.90
2663;DHT22;49701;48.072;7.800;2024-01-15T14:52:33;2.80;99.90
2663;DHT22;49701;48.072;7.800;2024-01-15T14:55:00;2.80;99.90
2663;DHT22;49701;48.072;7.800;2024-01-15T14:57:26;2.80;99.90
2663;DHT22;49701;48.072;7.800;2024-01-15T14:59:51;2.70;99.90
2663;DHT22;49701;48.072;7.800;2024-01-15T15:02:17;2.70;99.90
2663;DHT22;49701;48.072;7.800;2024-01-15T15:04:43;2.70;99.90
2663;DHT22;49701;48.072;7.800;2024-01-15T15:07:10;2.70;99.90
2663;DHT22;49701;48.072;7.800;2024-01-15T15:09:36;2.60;99.90
2663;DHT22;49701;48.072;7.800;2024-01-15T15:12:03;2.60;99.90
2663;DHT22;49701;48.072;7.800;2024-01-15T15:14:30;2.60;99.90
2663;DHT22;49701;48.072;7.800;2024-01-15T15:16:57;2.60;99.90
2663;DHT22;49701;48.072;7.800;2024-01-15T15:19:23;2.60;99.90
2663;DHT22;49701;48.072;7.800;2024-01-15T15:21:49;2.60;99.90
2663;DHT22;49701;48.072;7.800;2024-01-15T15:24:15;2.60;99.90
2663;DHT22;49701;48.072;7.800;2024-01-15T15:26:40;2.60;99.90
2663;DHT22;49701;48.072;7.800;2024-01-15T15:29:06;2.60;99.90
2663;DHT22;49701;48.072;7.800;2024-01-15T15:31:32;2.50;99.90
2663;DHT22;49701;48.072;7.800;2024-01-15T15:33:58;2.50;99.90
2663;DHT22;49701;48.072;7.800;2024-01-15T15:36:23;2.60;99.90
2663;DHT22;49701;48.072;7.800;2024-01-15T15:38:49;2.60;99.90
2663;DHT22;49701;48.072;7.800;2024-01-15T15:41:15;2.60;99.90
2663;DHT22;49701;48.072;7.800;2024-01-15T15:43:41;2.50;99.90
2663;DHT22;49701;48.072;7.800;2024-01-15T15:46:06;2.50;99.90
2663;DHT22;49701;48.072;7.800;2024-01-15T15:48:32;2.50;99.90
2663;DHT22;49701;48.072;7.800;2024-01-15T15:50:58;2.50;99.90
2663;DHT22;49701;48.072;7.800;2024-01-15T15:53:25;2.50;99.90
2663;DHT22;49701;48.072;7.800;2024-01-15T15:55:51;2.50;99.90
2663;DHT22;49701;48.072;7.800;2024-01-15T15:58:17;2.40;99.90
2663;DHT22;49701;48.072;7.800;2024-01-15T16:00:43;2.40;99.90
2663;DHT22;49701;48.072;7.800;2024-01-15T16:03:08;2.40;99.90